sensor_id;sensor_type;location;lat;lon;timestamp;pressure;altitude;pressure_sealevel;temperature;humidity
63097;BME280;49185;42.320;23.198;2022-09-29T00:00:37;93818.06;;;11.21;100.00
63097;BME280;49185;42.320;23.198;2022-09-29T00:03:03;93822.28;;;11.22;100.00
63097;BME280;49185;42.320;23.198;2022-09-29T00:05:28;93824.63;;;11.36;100.00
63097;BME280;49185;42.320;23.198;2022-09-29T00:07:54;93821.59;;;11.34;100.00
63097;BME280;49185;42.320;23.198;2022-09-29T00:10:19;93811.09;;;11.56;100.00
63097;BME280;49185;42.320;23.198;2022-09-29T00:12:45;93812.66;;;11.69;100.00
63097;BME280;49185;42.320;23.198;2022-09-29T00:15:10;93816.38;;;11.92;100.00
63097;BME280;49185;42.320;23.198;2022-09-29T00:17:36;93818.31;;;11.91;100.00
63097;BME280;49185;42.320;23.198;2022-09-29T00:20:02;93815.72;;;11.39;100.00
63097;BME280;49185;42.320;23.198;2022-09-29T00:22:27;93821.59;;;11.34;100.00
63097;BME280;49185;42.320;23.198;2022-09-29T00:24:53;93818.66;;;11.12;100.00
63097;BME280;49185;42.320;23.198;2022-09-29T00:27:18;93811.25;;;11.32;100.00
63097;BME280;49185;42.320;23.198;2022-09-29T00:29:45;93806.22;;;11.18;100.00
63097;BME280;49185;42.320;23.198;2022-09-29T00:32:11;93804.59;;;11.86;100.00
63097;BME280;49185;42.320;23.198;2022-09-29T00:34:36;93803.03;;;11.56;100.00
63097;BME280;49185;42.320;23.198;2022-09-29T00:37:03;93809.09;;;11.27;100.00
63097;BME280;49185;42.320;23.198;2022-09-29T00:39:28;93808.91;;;11.51;100.00
63097;BME280;49185;42.320;23.198;2022-09-29T00:41:54;93810.91;;;11.46;100.00
63097;BME280;49185;42.320;23.198;2022-09-29T00:54:41;93826.78;;;10.92;100.00
63097;BME280;49185;42.320;23.198;2022-09-29T00:57:12;93828.34;;;11.09;100.00
63097;BME280;49185;42.320;23.198;2022-09-29T01:02:07;93826.47;;;11.06;100.00
63097;BME280;49185;42.320;23.198;2022-09-29T01:04:33;93829.09;;;11.10;100.00
63097;BME280;49185;42.320;23.198;2022-09-29T01:06:58;93831.84;;;11.06;100.00
63097;BME280;49185;42.320;23.198;2022-09-29T01:09:33;93819.81;;;11.11;100.00
63097;BME280;49185;42.320;23.198;2022-09-29T01:11:59;93827.47;;;11.12;100.00
63097;BME280;49185;42.320;23.198;2022-09-29T01:14:28;93826.63;;;11.16;100.00
63097;BME280;49185;42.320;23.198;2022-09-29T01:16:54;93821.59;;;11.18;100.00
63097;BME280;49185;42.320;23.198;2022-09-29T01:19:33;93835.38;;;11.03;100.00
63097;BME280;49185;42.320;23.198;2022-09-29T01:24:55;93836.63;;;10.99;100.00
63097;BME280;49185;42.320;23.198;2022-09-29T01:27:40;93838.25;;;11.12;100.00
63097;BME280;49185;42.320;23.198;2022-09-29T01:30:17;93836.44;;;11.42;100.00
63097;BME280;49185;42.320;23.198;2022-09-29T01:41:05;93849.16;;;11.05;100.00
63097;BME280;49185;42.320;23.198;2022-09-29T01:46:14;93855.59;;;11.28;100.00
63097;BME280;49185;42.320;23.198;2022-09-29T01:48:46;93855.75;;;11.21;100.00
63097;BME280;49185;42.320;23.198;2022-09-29T01:51:17;93840.38;;;11.21;100.00
63097;BME280;49185;42.320;23.198;2022-09-29T01:53:48;93845.81;;;11.18;100.00
63097;BME280;49185;42.320;23.198;2022-09-29T01:56:20;93849.69;;;11.17;100.00
63097;BME280;49185;42.320;23.198;2022-09-29T01:58:59;93843.47;;;11.20;100.00
63097;BME280;49185;42.320;23.198;2022-09-29T02:01:30;93837.59;;;11.25;100.00
63097;BME280;49185;42.320;23.198;2022-09-29T02:04:06;93833.81;;;11.22;100.00
63097;BME280;49185;42.320;23.198;2022-09-29T02:06:44;93833.97;;;11.15;100.00
63097;BME280;49185;42.320;23.198;2022-09-29T02:09:18;93837.75;;;11.18;100.00
63097;BME280;49185;42.320;23.198;2022-09-29T02:11:49;93849.59;;;11.04;100.00
63097;BME280;49185;42.320;23.198;2022-09-29T02:14:24;93852.34;;;11.00;100.00
63097;BME280;49185;42.320;23.198;2022-09-29T02:19:39;93859.28;;;11.18;100.00
63097;BME280;49185;42.320;23.198;2022-09-29T02:22:07;93869.53;;;11.23;100.00
63097;BME280;49185;42.320;23.198;2022-09-29T02:24:32;93870.53;;;11.12;100.00
63097;BME280;49185;42.320;23.198;2022-09-29T02:26:58;93875.41;;;11.18;100.00
63097;BME280;49185;42.320;23.198;2022-09-29T02:29:24;93862.66;;;11.38;100.00
63097;BME280;49185;42.320;23.198;2022-09-29T02:31:50;93862.78;;;11.14;100.00
63097;BME280;49185;42.320;23.198;2022-09-29T02:34:18;93857.94;;;11.09;100.00
63097;BME280;49185;42.320;23.198;2022-09-29T02:42:53;93872.22;;;11.06;100.00
63097;BME280;49185;42.320;23.198;2022-09-29T02:45:34;93870.69;;;11.05;100.00
63097;BME280;49185;42.320;23.198;2022-09-29T02:56:30;93871.91;;;10.85;100.00
63097;BME280;49185;42.320;23.198;2022-09-29T02:59:13;93865.94;;;10.93;100.00
63097;BME280;49185;42.320;23.198;2022-09-29T03:01:51;93873.91;;;11.17;100.00
63097;BME280;49185;42.320;23.198;2022-09-29T03:04:19;93871.19;;;11.00;100.00
63097;BME280;49185;42.320;23.198;2022-09-29T03:06:44;93860.06;;;10.98;100.00
63097;BME280;49185;42.320;23.198;2022-09-29T03:09:10;93869.53;;;11.06;100.00
63097;BME280;49185;42.320;23.198;2022-09-29T03:11:36;93853.22;;;11.30;100.00
63097;BME280;49185;42.320;23.198;2022-09-29T03:14:01;93859.97;;;11.22;100.00
63097;BME280;49185;42.320;23.198;2022-09-29T03:16:27;93851.09;;;11.05;100.00
63097;BME280;49185;42.320;23.198;2022-09-29T03:18:52;93863.63;;;11.11;100.00
63097;BME280;49185;42.320;23.198;2022-09-29T03:21:17;93860.63;;;11.26;100.00
63097;BME280;49185;42.320;23.198;2022-09-29T03:23:43;93868.03;;;11.22;100.00
63097;BME280;49185;42.320;23.198;2022-09-29T03:26:08;93864.97;;;11.03;100.00
63097;BME280;49185;42.320;23.198;2022-09-29T03:28:34;93865.41;;;10.82;100.00
63097;BME280;49185;42.320;23.198;2022-09-29T03:31:06;93872.88;;;10.74;100.00
63097;BME280;49185;42.320;23.198;2022-09-29T03:33:32;93881.47;;;10.86;100.00
63097;BME280;49185;42.320;23.198;2022-09-29T03:35:58;93874.19;;;10.66;100.00
63097;BME280;49185;42.320;23.198;2022-09-29T03:38:24;93874.19;;;10.66;100.00
63097;BME280;49185;42.320;23.198;2022-09-29T03:40:49;93884.88;;;10.70;100.00
63097;BME280;49185;42.320;23.198;2022-09-29T03:43:14;93889.56;;;10.66;100.00
63097;BME280;49185;42.320;23.198;2022-09-29T03:45:50;93892.78;;;10.57;100.00
63097;BME280;49185;42.320;23.198;2022-09-29T03:48:16;93895.91;;;10.56;100.00
63097;BME280;49185;42.320;23.198;2022-09-29T03:50:46;93885.06;;;10.79;100.00
63097;BME280;49185;42.320;23.198;2022-09-29T03:53:13;93880.03;;;10.61;100.00
63097;BME280;49185;42.320;23.198;2022-09-29T03:55:39;93889.97;;;10.44;100.00
63097;BME280;49185;42.320;23.198;2022-09-29T03:58:05;93889.94;;;10.25;100.00
63097;BME280;49185;42.320;23.198;2022-09-29T04:00:31;93876.28;;;10.39;100.00
63097;BME280;49185;42.320;23.198;2022-09-29T04:02:56;93870.16;;;10.15;100.00
63097;BME280;49185;42.320;23.198;2022-09-29T04:05:22;93872.44;;;10.17;100.00
63097;BME280;49185;42.320;23.198;2022-09-29T04:07:48;93854.69;;;10.23;100.00
63097;BME280;49185;42.320;23.198;2022-09-29T04:10:13;93858.81;;;10.27;100.00
63097;BME280;49185;42.320;23.198;2022-09-29T04:12:39;93854.44;;;10.37;100.00
63097;BME280;49185;42.320;23.198;2022-09-29T04:15:05;93850.28;;;10.32;100.00
63097;BME280;49185;42.320;23.198;2022-09-29T04:17:30;93843.63;;;10.17;100.00
63097;BME280;49185;42.320;23.198;2022-09-29T04:19:56;93850.16;;;10.20;100.00
63097;BME280;49185;42.320;23.198;2022-09-29T04:22:21;93851.47;;;10.08;100.00
63097;BME280;49185;42.320;23.198;2022-09-29T04:24:47;93842.56;;;9.91;100.00
63097;BME280;49185;42.320;23.198;2022-09-29T04:27:13;93836.34;;;9.74;100.00
63097;BME280;49185;42.320;23.198;2022-09-29T04:29:39;93837.56;;;9.70;100.00
63097;BME280;49185;42.320;23.198;2022-09-29T04:32:04;93837.84;;;9.75;100.00
63097;BME280;49185;42.320;23.198;2022-09-29T04:34:30;93839.03;;;9.74;100.00
63097;BME280;49185;42.320;23.198;2022-09-29T04:36:55;93843.53;;;9.81;100.00
63097;BME280;49185;42.320;23.198;2022-09-29T04:39:21;93844.94;;;9.86;100.00
63097;BME280;49185;42.320;23.198;2022-09-29T04:41:46;93839.78;;;10.18;100.00
63097;BME280;49185;42.320;23.198;2022-09-29T04:44:12;93835.81;;;10.26;100.00
63097;BME280;49185;42.320;23.198;2022-09-29T04:46:37;93840.56;;;10.19;100.00
63097;BME280;49185;42.320;23.198;2022-09-29T04:49:03;93848.06;;;10.27;100.00
63097;BME280;49185;42.320;23.198;2022-09-29T04:51:28;93857.66;;;10.28;100.00
63097;BME280;49185;42.320;23.198;2022-09-29T04:53:53;93872.03;;;10.18;100.00
63097;BME280;49185;42.320;23.198;2022-09-29T04:56:19;93872.66;;;10.26;100.00
63097;BME280;49185;42.320;23.198;2022-09-29T04:58:44;93862.41;;;10.60;100.00
63097;BME280;49185;42.320;23.198;2022-09-29T05:01:11;93869.81;;;10.92;100.00
63097;BME280;49185;42.320;23.198;2022-09-29T05:03:36;93874.38;;;11.11;100.00
63097;BME280;49185;42.320;23.198;2022-09-29T05:06:02;93875.44;;;11.50;100.00
63097;BME280;49185;42.320;23.198;2022-09-29T05:08:27;93869.75;;;11.64;100.00
63097;BME280;49185;42.320;23.198;2022-09-29T05:10:53;93865.69;;;11.72;100.00
63097;BME280;49185;42.320;23.198;2022-09-29T05:13:18;93868.91;;;12.00;100.00
63097;BME280;49185;42.320;23.198;2022-09-29T05:15:43;93876.09;;;12.19;100.00
63097;BME280;49185;42.320;23.198;2022-09-29T05:18:09;93870.53;;;12.26;100.00
63097;BME280;49185;42.320;23.198;2022-09-29T05:20:34;93873.59;;;12.41;100.00
63097;BME280;49185;42.320;23.198;2022-09-29T05:23:00;93858.59;;;12.69;100.00
63097;BME280;49185;42.320;23.198;2022-09-29T05:25:26;93856.75;;;12.78;100.00
63097;BME280;49185;42.320;23.198;2022-09-29T05:27:51;93856.25;;;12.96;100.00
63097;BME280;49185;42.320;23.198;2022-09-29T05:30:17;93868.97;;;13.25;100.00
63097;BME280;49185;42.320;23.198;2022-09-29T05:32:42;93879.72;;;13.75;100.00
63097;BME280;49185;42.320;23.198;2022-09-29T05:35:08;93875.53;;;13.74;100.00
63097;BME280;49185;42.320;23.198;2022-09-29T05:37:33;93880.00;;;14.50;100.00
63097;BME280;49185;42.320;23.198;2022-09-29T05:39:59;93870.44;;;14.80;100.00
63097;BME280;49185;42.320;23.198;2022-09-29T05:42:24;93874.84;;;14.86;100.00
63097;BME280;49185;42.320;23.198;2022-09-29T05:44:50;93877.91;;;15.59;100.00
63097;BME280;49185;42.320;23.198;2022-09-29T05:47:15;93878.81;;;16.24;100.00
63097;BME280;49185;42.320;23.198;2022-09-29T05:49:41;93880.91;;;17.11;100.00
63097;BME280;49185;42.320;23.198;2022-09-29T05:52:06;93878.09;;;17.90;100.00
63097;BME280;49185;42.320;23.198;2022-09-29T05:54:32;93885.47;;;18.22;100.00
63097;BME280;49185;42.320;23.198;2022-09-29T05:56:57;93892.56;;;18.20;100.00
63097;BME280;49185;42.320;23.198;2022-09-29T05:59:22;93894.78;;;19.81;100.00
63097;BME280;49185;42.320;23.198;2022-09-29T06:01:48;93887.47;;;19.14;100.00
63097;BME280;49185;42.320;23.198;2022-09-29T06:04:13;93898.13;;;18.01;100.00
63097;BME280;49185;42.320;23.198;2022-09-29T06:06:39;93893.50;;;17.42;100.00
63097;BME280;49185;42.320;23.198;2022-09-29T06:09:05;93908.69;;;17.06;100.00
63097;BME280;49185;42.320;23.198;2022-09-29T06:11:31;93905.47;;;17.26;100.00
63097;BME280;49185;42.320;23.198;2022-09-29T06:13:57;93895.59;;;16.68;100.00
63097;BME280;49185;42.320;23.198;2022-09-29T06:16:25;93900.09;;;17.68;100.00
63097;BME280;49185;42.320;23.198;2022-09-29T06:18:51;93902.88;;;18.16;100.00
63097;BME280;49185;42.320;23.198;2022-09-29T06:21:22;93903.53;;;19.26;100.00
63097;BME280;49185;42.320;23.198;2022-09-29T06:23:48;93895.66;;;19.28;100.00
63097;BME280;49185;42.320;23.198;2022-09-29T06:26:16;93906.19;;;18.44;100.00
63097;BME280;49185;42.320;23.198;2022-09-29T06:28:42;93905.31;;;19.29;100.00
63097;BME280;49185;42.320;23.198;2022-09-29T06:31:11;93917.66;;;18.71;100.00
63097;BME280;49185;42.320;23.198;2022-09-29T06:33:37;93914.44;;;18.49;100.00
63097;BME280;49185;42.320;23.198;2022-09-29T06:36:07;93906.09;;;18.29;100.00
63097;BME280;49185;42.320;23.198;2022-09-29T06:38:35;93917.44;;;18.27;100.00
63097;BME280;49185;42.320;23.198;2022-09-29T06:41:00;93908.63;;;18.42;100.00
63097;BME280;49185;42.320;23.198;2022-09-29T06:43:26;93912.84;;;18.66;100.00
63097;BME280;49185;42.320;23.198;2022-09-29T06:45:51;93925.81;;;18.24;100.00
63097;BME280;49185;42.320;23.198;2022-09-29T06:48:17;93922.09;;;18.36;100.00
63097;BME280;49185;42.320;23.198;2022-09-29T06:50:42;93933.38;;;18.20;100.00
63097;BME280;49185;42.320;23.198;2022-09-29T06:53:07;93924.94;;;18.65;100.00
63097;BME280;49185;42.320;23.198;2022-09-29T06:55:33;93931.06;;;18.27;100.00
63097;BME280;49185;42.320;23.198;2022-09-29T06:57:58;93926.84;;;19.86;100.00
63097;BME280;49185;42.320;23.198;2022-09-29T07:00:24;93927.38;;;20.60;100.00
63097;BME280;49185;42.320;23.198;2022-09-29T07:02:49;93936.38;;;21.27;100.00
63097;BME280;49185;42.320;23.198;2022-09-29T07:05:15;93941.72;;;20.96;79.05
63097;BME280;49185;42.320;23.198;2022-09-29T07:07:41;93922.72;;;20.87;78.40
63097;BME280;49185;42.320;23.198;2022-09-29T07:10:07;93922.81;;;20.72;77.77
63097;BME280;49185;42.320;23.198;2022-09-29T07:12:32;93917.22;;;20.05;81.75
63097;BME280;49185;42.320;23.198;2022-09-29T07:14:57;93918.94;;;21.04;80.74
63097;BME280;49185;42.320;23.198;2022-09-29T07:17:23;93919.72;;;21.57;77.70
63097;BME280;49185;42.320;23.198;2022-09-29T07:19:48;93916.25;;;22.25;72.36
63097;BME280;49185;42.320;23.198;2022-09-29T07:22:14;93913.97;;;21.86;74.83
63097;BME280;49185;42.320;23.198;2022-09-29T07:24:39;93909.75;;;22.65;70.77
63097;BME280;49185;42.320;23.198;2022-09-29T07:27:05;93912.75;;;22.19;71.71
63097;BME280;49185;42.320;23.198;2022-09-29T07:29:30;93903.16;;;21.71;74.26
63097;BME280;49185;42.320;23.198;2022-09-29T07:31:55;93905.34;;;21.62;75.35
63097;BME280;49185;42.320;23.198;2022-09-29T07:34:21;93904.78;;;21.89;74.47
63097;BME280;49185;42.320;23.198;2022-09-29T07:36:47;93910.59;;;21.97;74.61
63097;BME280;49185;42.320;23.198;2022-09-29T07:39:12;93894.41;;;22.90;70.88
63097;BME280;49185;42.320;23.198;2022-09-29T07:41:40;93904.91;;;22.91;69.80
63097;BME280;49185;42.320;23.198;2022-09-29T07:44:14;93913.91;;;23.14;67.69
63097;BME280;49185;42.320;23.198;2022-09-29T07:47:01;93927.63;;;23.14;67.79
63097;BME280;49185;42.320;23.198;2022-09-29T07:49:33;93929.44;;;23.50;66.56
63097;BME280;49185;42.320;23.198;2022-09-29T07:52:12;93939.47;;;23.65;64.61
63097;BME280;49185;42.320;23.198;2022-09-29T07:54:40;93941.81;;;23.01;67.21
63097;BME280;49185;42.320;23.198;2022-09-29T07:57:06;93951.69;;;22.82;67.88
63097;BME280;49185;42.320;23.198;2022-09-29T07:59:32;93939.16;;;23.35;69.78
63097;BME280;49185;42.320;23.198;2022-09-29T08:01:57;93934.41;;;23.35;65.12
63097;BME280;49185;42.320;23.198;2022-09-29T08:04:23;93935.38;;;23.21;67.67
63097;BME280;49185;42.320;23.198;2022-09-29T08:06:48;93931.19;;;23.42;67.79
63097;BME280;49185;42.320;23.198;2022-09-29T08:09:14;93923.47;;;23.41;64.82
63097;BME280;49185;42.320;23.198;2022-09-29T08:11:41;93927.38;;;23.12;64.95
63097;BME280;49185;42.320;23.198;2022-09-29T08:14:08;93929.91;;;23.21;67.93
63097;BME280;49185;42.320;23.198;2022-09-29T08:16:35;93932.75;;;23.94;67.53
63097;BME280;49185;42.320;23.198;2022-09-29T08:19:01;93930.75;;;23.77;67.50
63097;BME280;49185;42.320;23.198;2022-09-29T08:21:27;93938.72;;;24.14;67.21
63097;BME280;49185;42.320;23.198;2022-09-29T08:23:53;93942.00;;;23.79;70.15
63097;BME280;49185;42.320;23.198;2022-09-29T08:26:20;93946.00;;;25.09;63.18
63097;BME280;49185;42.320;23.198;2022-09-29T08:28:46;93946.97;;;24.31;67.57
63097;BME280;49185;42.320;23.198;2022-09-29T08:31:19;93943.56;;;25.00;64.45
63097;BME280;49185;42.320;23.198;2022-09-29T08:33:49;93940.47;;;25.20;60.76
63097;BME280;49185;42.320;23.198;2022-09-29T08:36:16;93946.19;;;24.53;62.73
63097;BME280;49185;42.320;23.198;2022-09-29T08:38:47;93942.22;;;24.32;63.75
63097;BME280;49185;42.320;23.198;2022-09-29T08:41:59;93940.44;;;24.51;64.07
63097;BME280;49185;42.320;23.198;2022-09-29T08:47:15;93908.41;;;24.70;66.70
63097;BME280;49185;42.320;23.198;2022-09-29T08:52:18;93918.03;;;23.74;68.76
63097;BME280;49185;42.320;23.198;2022-09-29T08:54:46;93929.50;;;23.78;67.95
63097;BME280;49185;42.320;23.198;2022-09-29T08:57:14;93931.75;;;23.91;66.44
63097;BME280;49185;42.320;23.198;2022-09-29T08:59:40;93932.41;;;24.64;64.40
63097;BME280;49185;42.320;23.198;2022-09-29T09:04:57;93930.97;;;24.07;61.69
63097;BME280;49185;42.320;23.198;2022-09-29T09:10:40;93941.78;;;22.47;60.78
63097;BME280;49185;42.320;23.198;2022-09-29T09:13:31;93952.44;;;22.40;63.50
63097;BME280;49185;42.320;23.198;2022-09-29T09:21:23;93931.94;;;24.49;58.89
63097;BME280;49185;42.320;23.198;2022-09-29T09:23:54;93934.59;;;25.40;52.96
63097;BME280;49185;42.320;23.198;2022-09-29T09:26:35;93939.03;;;25.08;55.94
63097;BME280;49185;42.320;23.198;2022-09-29T09:29:08;93933.34;;;25.41;52.10
63097;BME280;49185;42.320;23.198;2022-09-29T09:31:48;93933.53;;;25.49;51.30
63097;BME280;49185;42.320;23.198;2022-09-29T09:34:28;93942.41;;;24.56;52.26
63097;BME280;49185;42.320;23.198;2022-09-29T09:37:05;93937.84;;;25.39;52.28
63097;BME280;49185;42.320;23.198;2022-09-29T09:39:35;93924.66;;;25.26;52.12
63097;BME280;49185;42.320;23.198;2022-09-29T09:42:08;93933.81;;;25.81;52.81
63097;BME280;49185;42.320;23.198;2022-09-29T09:44:42;93924.59;;;26.08;46.94
63097;BME280;49185;42.320;23.198;2022-09-29T09:47:28;93908.59;;;25.36;49.31
63097;BME280;49185;42.320;23.198;2022-09-29T09:50:01;93927.84;;;24.78;53.73
63097;BME280;49185;42.320;23.198;2022-09-29T09:52:38;93919.47;;;25.17;51.94
63097;BME280;49185;42.320;23.198;2022-09-29T09:55:12;93920.03;;;24.99;53.68
63097;BME280;49185;42.320;23.198;2022-09-29T10:00:46;93923.03;;;25.83;53.05
63097;BME280;49185;42.320;23.198;2022-09-29T10:03:13;93931.72;;;25.57;50.39
63097;BME280;49185;42.320;23.198;2022-09-29T10:05:43;93925.28;;;25.02;51.43
63097;BME280;49185;42.320;23.198;2022-09-29T10:08:29;93925.63;;;25.34;52.56
63097;BME280;49185;42.320;23.198;2022-09-29T10:10:57;93923.75;;;25.53;50.71
63097;BME280;49185;42.320;23.198;2022-09-29T10:13:25;93922.16;;;25.99;51.33
63097;BME280;49185;42.320;23.198;2022-09-29T10:18:46;93928.94;;;25.98;47.31
63097;BME280;49185;42.320;23.198;2022-09-29T10:23:53;93929.56;;;26.15;47.38
63097;BME280;49185;42.320;23.198;2022-09-29T10:26:24;93925.06;;;26.42;50.81
63097;BME280;49185;42.320;23.198;2022-09-29T10:29:01;93923.97;;;26.51;45.83
63097;BME280;49185;42.320;23.198;2022-09-29T10:31:31;93919.81;;;26.39;47.90
63097;BME280;49185;42.320;23.198;2022-09-29T10:36:30;93912.44;;;25.21;48.43
63097;BME280;49185;42.320;23.198;2022-09-29T10:38:56;93917.00;;;25.90;47.01
63097;BME280;49185;42.320;23.198;2022-09-29T10:41:22;93908.72;;;25.90;49.12
63097;BME280;49185;42.320;23.198;2022-09-29T10:43:48;93903.78;;;25.01;47.81
63097;BME280;49185;42.320;23.198;2022-09-29T10:46:47;93903.09;;;24.78;48.94
63097;BME280;49185;42.320;23.198;2022-09-29T10:49:17;93904.03;;;23.89;51.56
63097;BME280;49185;42.320;23.198;2022-09-29T10:52:04;93912.00;;;23.65;52.51
63097;BME280;49185;42.320;23.198;2022-09-29T10:54:55;93905.53;;;23.68;53.80
63097;BME280;49185;42.320;23.198;2022-09-29T10:57:25;93901.78;;;24.04;53.51
63097;BME280;49185;42.320;23.198;2022-09-29T10:59:52;93910.47;;;24.53;52.36
63097;BME280;49185;42.320;23.198;2022-09-29T11:02:31;93899.81;;;25.78;46.90
63097;BME280;49185;42.320;23.198;2022-09-29T11:05:01;93905.94;;;25.96;49.77
63097;BME280;49185;42.320;23.198;2022-09-29T11:07:28;93896.94;;;25.59;46.48
63097;BME280;49185;42.320;23.198;2022-09-29T11:09:54;93901.34;;;25.33;47.00
63097;BME280;49185;42.320;23.198;2022-09-29T11:12:34;93913.75;;;26.16;47.34
63097;BME280;49185;42.320;23.198;2022-09-29T11:15:01;93904.88;;;26.28;45.71
63097;BME280;49185;42.320;23.198;2022-09-29T11:17:36;93907.88;;;26.55;45.76
63097;BME280;49185;42.320;23.198;2022-09-29T11:20:05;93906.44;;;25.94;46.29
63097;BME280;49185;42.320;23.198;2022-09-29T11:25:16;93906.22;;;24.41;50.85
63097;BME280;49185;42.320;23.198;2022-09-29T11:41:51;93904.47;;;24.49;51.88
63097;BME280;49185;42.320;23.198;2022-09-29T11:44:44;93876.78;;;24.99;49.09
63097;BME280;49185;42.320;23.198;2022-09-29T11:50:22;93879.28;;;24.34;50.01
63097;BME280;49185;42.320;23.198;2022-09-29T11:52:55;93874.56;;;24.17;52.25
63097;BME280;49185;42.320;23.198;2022-09-29T11:55:52;93877.97;;;24.46;52.72
63097;BME280;49185;42.320;23.198;2022-09-29T12:01:18;93872.41;;;25.56;47.43
63097;BME280;49185;42.320;23.198;2022-09-29T12:15:14;93877.63;;;25.65;47.21
63097;BME280;49185;42.320;23.198;2022-09-29T12:17:46;93883.81;;;25.36;48.57
63097;BME280;49185;42.320;23.198;2022-09-29T12:20:23;93888.19;;;25.55;48.70
63097;BME280;49185;42.320;23.198;2022-09-29T12:22:52;93890.19;;;25.55;46.35
63097;BME280;49185;42.320;23.198;2022-09-29T12:25:28;93882.31;;;25.35;47.06
63097;BME280;49185;42.320;23.198;2022-09-29T12:28:04;93889.38;;;24.72;51.08
63097;BME280;49185;42.320;23.198;2022-09-29T12:30:44;93876.34;;;24.84;47.13
63097;BME280;49185;42.320;23.198;2022-09-29T12:33:21;93881.56;;;23.96;51.50
63097;BME280;49185;42.320;23.198;2022-09-29T12:38:40;93873.91;;;24.69;52.45
63097;BME280;49185;42.320;23.198;2022-09-29T12:41:24;93881.44;;;24.57;48.56
63097;BME280;49185;42.320;23.198;2022-09-29T12:44:12;93876.03;;;24.24;51.83
63097;BME280;49185;42.320;23.198;2022-09-29T12:46:50;93876.81;;;24.13;51.28
63097;BME280;49185;42.320;23.198;2022-09-29T12:51:51;93880.31;;;24.88;50.41
63097;BME280;49185;42.320;23.198;2022-09-29T12:59:39;93893.59;;;24.79;48.38
63097;BME280;49185;42.320;23.198;2022-09-29T13:13:26;93893.25;;;23.35;52.96
63097;BME280;49185;42.320;23.198;2022-09-29T13:21:52;93889.75;;;23.24;56.53
63097;BME280;49185;42.320;23.198;2022-09-29T13:27:36;93898.25;;;22.55;55.99
63097;BME280;49185;42.320;23.198;2022-09-29T13:32:40;93897.50;;;22.60;58.97
63097;BME280;49185;42.320;23.198;2022-09-29T13:35:12;93898.66;;;22.91;58.27
63097;BME280;49185;42.320;23.198;2022-09-29T13:37:46;93909.84;;;22.81;57.52
63097;BME280;49185;42.320;23.198;2022-09-29T13:40:20;93903.91;;;23.00;57.03
63097;BME280;49185;42.320;23.198;2022-09-29T13:42:50;93904.47;;;23.26;57.65
63097;BME280;49185;42.320;23.198;2022-09-29T13:55:52;93901.00;;;23.42;55.63
63097;BME280;49185;42.320;23.198;2022-09-29T14:01:37;93905.50;;;23.45;53.42
63097;BME280;49185;42.320;23.198;2022-09-29T14:07:06;93904.63;;;22.89;56.36
63097;BME280;49185;42.320;23.198;2022-09-29T14:09:39;93902.78;;;22.69;58.57
63097;BME280;49185;42.320;23.198;2022-09-29T14:12:17;93895.72;;;22.46;58.19
63097;BME280;49185;42.320;23.198;2022-09-29T14:14:51;93900.25;;;22.55;59.17
63097;BME280;49185;42.320;23.198;2022-09-29T14:17:23;93908.44;;;22.49;61.22
63097;BME280;49185;42.320;23.198;2022-09-29T14:25:47;93909.19;;;22.49;60.17
63097;BME280;49185;42.320;23.198;2022-09-29T14:28:18;93906.25;;;22.64;59.64
63097;BME280;49185;42.320;23.198;2022-09-29T14:30:51;93909.69;;;23.07;60.55
63097;BME280;49185;42.320;23.198;2022-09-29T14:33:32;93900.81;;;22.75;59.69
63097;BME280;49185;42.320;23.198;2022-09-29T14:38:27;93901.00;;;22.61;60.33
63097;BME280;49185;42.320;23.198;2022-09-29T14:43:45;93914.78;;;22.77;58.80
63097;BME280;49185;42.320;23.198;2022-09-29T14:51:55;93910.06;;;21.61;64.23
63097;BME280;49185;42.320;23.198;2022-09-29T15:00:21;93904.00;;;21.52;64.80
63097;BME280;49185;42.320;23.198;2022-09-29T15:02:49;93914.47;;;21.53;64.92
63097;BME280;49185;42.320;23.198;2022-09-29T15:05:30;93912.00;;;21.55;66.78
63097;BME280;49185;42.320;23.198;2022-09-29T15:07:57;93916.63;;;21.75;65.03
63097;BME280;49185;42.320;23.198;2022-09-29T15:12:49;93921.69;;;21.25;66.78
63097;BME280;49185;42.320;23.198;2022-09-29T15:15:32;93925.25;;;21.36;67.01
63097;BME280;49185;42.320;23.198;2022-09-29T15:23:58;93930.91;;;21.07;68.18
63097;BME280;49185;42.320;23.198;2022-09-29T15:26:30;93941.47;;;20.94;68.01
63097;BME280;49185;42.320;23.198;2022-09-29T15:28:56;93935.25;;;20.53;71.49
63097;BME280;49185;42.320;23.198;2022-09-29T15:31:27;93938.72;;;20.53;72.63
63097;BME280;49185;42.320;23.198;2022-09-29T15:33:53;93947.47;;;20.57;72.20
63097;BME280;49185;42.320;23.198;2022-09-29T15:36:35;93941.59;;;20.29;73.89
63097;BME280;49185;42.320;23.198;2022-09-29T15:39:50;93953.81;;;19.99;75.29
63097;BME280;49185;42.320;23.198;2022-09-29T15:41:58;93955.25;;;19.80;78.34
63097;BME280;49185;42.320;23.198;2022-09-29T15:44:27;93964.75;;;19.84;77.48
63097;BME280;49185;42.320;23.198;2022-09-29T15:46:56;93977.66;;;19.69;79.52
63097;BME280;49185;42.320;23.198;2022-09-29T15:49:26;93963.09;;;20.07;77.19
63097;BME280;49185;42.320;23.198;2022-09-29T15:51:59;93970.81;;;20.08;76.89
63097;BME280;49185;42.320;23.198;2022-09-29T15:54:37;93970.00;;;20.02;75.79
63097;BME280;49185;42.320;23.198;2022-09-29T15:57:03;93976.13;;;19.97;76.08
63097;BME280;49185;42.320;23.198;2022-09-29T15:59:46;93975.38;;;19.82;77.64
63097;BME280;49185;42.320;23.198;2022-09-29T16:02:39;93983.09;;;19.84;78.63
63097;BME280;49185;42.320;23.198;2022-09-29T16:05:10;93987.72;;;19.77;77.59